sensor_id;sensor_type;location;lat;lon;timestamp;temperature;humidity
8332;DHT22;4203;48.144;14.118;2023-04-01T00:00:27;8.50;99.90
8332;DHT22;4203;48.144;14.118;2023-04-01T00:02:54;8.50;99.90
8332;DHT22;4203;48.144;14.118;2023-04-01T00:05:21;8.50;99.90
8332;DHT22;4203;48.144;14.118;2023-04-01T00:07:50;8.60;99.90
8332;DHT22;4203;48.144;14.118;2023-04-01T00:10:17;8.70;99.90
8332;DHT22;4203;48.144;14.118;2023-04-01T00:12:46;8.90;99.90
8332;DHT22;4203;48.144;14.118;2023-04-01T00:15:13;8.90;99.90
8332;DHT22;4203;48.144;14.118;2023-04-01T00:17:41;8.90;99.90
8332;DHT22;4203;48.144;14.118;2023-04-01T00:20:09;9.00;99.90
8332;DHT22;4203;48.144;14.118;2023-04-01T00:22:36;9.00;99.90
8332;DHT22;4203;48.144;14.118;2023-04-01T00:25:04;9.00;99.90
8332;DHT22;4203;48.144;14.118;2023-04-01T00:27:31;9.00;99.90
8332;DHT22;4203;48.144;14.118;2023-04-01T00:30:00;9.10;99.90
8332;DHT22;4203;48.144;14.118;2023-04-01T00:32:27;9.10;99.90
8332;DHT22;4203;48.144;14.118;2023-04-01T00:34:54;9.10;99.90
8332;DHT22;4203;48.144;14.118;2023-04-01T00:37:21;9.10;99.90
8332;DHT22;4203;48.144;14.118;2023-04-01T00:39:48;9.10;99.90
8332;DHT22;4203;48.144;14.118;2023-04-01T00:42:16;9.10;99.90
8332;DHT22;4203;48.144;14.118;2023-04-01T00:44:47;9.10;99.90
8332;DHT22;4203;48.144;14.118;2023-04-01T00:47:16;9.00;99.90
8332;DHT22;4203;48.144;14.118;2023-04-01T00:49:46;9.00;99.90
8332;DHT22;4203;48.144;14.118;2023-04-01T00:52:16;9.10;99.90
8332;DHT22;4203;48.144;14.118;2023-04-01T00:54:47;9.10;99.90
8332;DHT22;4203;48.144;14.118;2023-04-01T00:57:17;10.20;99.90
8332;DHT22;4203;48.144;14.118;2023-04-01T00:59:49;9.00;99.90
8332;DHT22;4203;48.144;14.118;2023-04-01T01:02:20;8.50;99.90
8332;DHT22;4203;48.144;14.118;2023-04-01T01:04:47;9.00;99.90
8332;DHT22;4203;48.144;14.118;2023-04-01T01:07:22;8.90;99.90
8332;DHT22;4203;48.144;14.118;2023-04-01T01:09:57;8.80;99.90
8332;DHT22;4203;48.144;14.118;2023-04-01T01:12:34;8.90;99.90
8332;DHT22;4203;48.144;14.118;2023-04-01T01:15:08;8.80;99.90
8332;DHT22;4203;48.144;14.118;2023-04-01T01:17:47;8.80;99.90
8332;DHT22;4203;48.144;14.118;2023-04-01T01:26:45;8.90;99.90
8332;DHT22;4203;48.144;14.118;2023-04-01T01:29:27;8.90;99.90
8332;DHT22;4203;48.144;14.118;2023-04-01T01:32:01;8.90;99.90
8332;DHT22;4203;48.144;14.118;2023-04-01T01:34:34;8.90;99.90
8332;DHT22;4203;48.144;14.118;2023-04-01T01:37:09;8.90;99.90
8332;DHT22;4203;48.144;14.118;2023-04-01T01:39:37;9.00;99.90
8332;DHT22;4203;48.144;14.118;2023-04-01T01:42:09;9.00;99.90
8332;DHT22;4203;48.144;14.118;2023-04-01T01:44:38;8.90;99.90
8332;DHT22;4203;48.144;14.118;2023-04-01T01:47:08;8.90;99.90
8332;DHT22;4203;48.144;14.118;2023-04-01T01:49:36;8.90;99.90
8332;DHT22;4203;48.144;14.118;2023-04-01T01:52:05;8.90;99.90
8332;DHT22;4203;48.144;14.118;2023-04-01T01:54:32;8.80;99.90
8332;DHT22;4203;48.144;14.118;2023-04-01T01:57:04;8.80;99.90
8332;DHT22;4203;48.144;14.118;2023-04-01T01:59:35;8.70;99.90
8332;DHT22;4203;48.144;14.118;2023-04-01T02:02:04;8.80;99.90
8332;DHT22;4203;48.144;14.118;2023-04-01T02:04:35;8.70;99.90
8332;DHT22;4203;48.144;14.118;2023-04-01T02:07:08;8.80;99.90
8332;DHT22;4203;48.144;14.118;2023-04-01T02:09:38;8.70;99.90
8332;DHT22;4203;48.144;14.118;2023-04-01T02:12:07;8.70;99.90
8332;DHT22;4203;48.144;14.118;2023-04-01T02:14:39;8.70;99.90
8332;DHT22;4203;48.144;14.118;2023-04-01T02:17:10;8.60;99.90
8332;DHT22;4203;48.144;14.118;2023-04-01T02:19:42;8.70;99.90
8332;DHT22;4203;48.144;14.118;2023-04-01T02:22:17;8.70;99.90
8332;DHT22;4203;48.144;14.118;2023-04-01T02:24:45;8.70;99.90
8332;DHT22;4203;48.144;14.118;2023-04-01T02:27:12;8.80;99.90
8332;DHT22;4203;48.144;14.118;2023-04-01T02:29:40;8.80;99.90
8332;DHT22;4203;48.144;14.118;2023-04-01T02:32:08;8.80;99.90
8332;DHT22;4203;48.144;14.118;2023-04-01T02:34:37;8.80;99.90
8332;DHT22;4203;48.144;14.118;2023-04-01T02:37:04;8.70;99.90
8332;DHT22;4203;48.144;14.118;2023-04-01T02:39:33;8.60;99.90
8332;DHT22;4203;48.144;14.118;2023-04-01T02:42:00;8.50;99.90
8332;DHT22;4203;48.144;14.118;2023-04-01T02:44:27;8.50;99.90
8332;DHT22;4203;48.144;14.118;2023-04-01T02:46:54;8.40;99.90
8332;DHT22;4203;48.144;14.118;2023-04-01T02:49:21;8.40;99.90
8332;DHT22;4203;48.144;14.118;2023-04-01T02:51:48;8.40;99.90
8332;DHT22;4203;48.144;14.118;2023-04-01T02:54:17;8.30;99.90
8332;DHT22;4203;48.144;14.118;2023-04-01T02:56:46;8.30;99.90
8332;DHT22;4203;48.144;14.118;2023-04-01T02:59:13;8.30;99.90
8332;DHT22;4203;48.144;14.118;2023-04-01T03:01:40;8.30;99.90
8332;DHT22;4203;48.144;14.118;2023-04-01T03:04:07;8.20;99.90
8332;DHT22;4203;48.144;14.118;2023-04-01T03:06:34;8.10;99.90
8332;DHT22;4203;48.144;14.118;2023-04-01T03:09:01;8.00;99.90
8332;DHT22;4203;48.144;14.118;2023-04-01T03:11:29;7.90;99.90
8332;DHT22;4203;48.144;14.118;2023-04-01T03:13:57;7.90;99.90
8332;DHT22;4203;48.144;14.118;2023-04-01T03:16:25;7.80;99.90
8332;DHT22;4203;48.144;14.118;2023-04-01T03:18:52;7.80;99.90
8332;DHT22;4203;48.144;14.118;2023-04-01T03:21:22;7.90;99.90
8332;DHT22;4203;48.144;14.118;2023-04-01T03:23:49;7.80;99.90
8332;DHT22;4203;48.144;14.118;2023-04-01T03:26:17;7.80;99.90
8332;DHT22;4203;48.144;14.118;2023-04-01T03:28:45;7.80;99.90
8332;DHT22;4203;48.144;14.118;2023-04-01T03:31:14;7.80;99.90
8332;DHT22;4203;48.144;14.118;2023-04-01T03:33:41;7.70;99.90
8332;DHT22;4203;48.144;14.118;2023-04-01T03:36:09;7.60;99.90
8332;DHT22;4203;48.144;14.118;2023-04-01T03:38:37;7.50;99.90
8332;DHT22;4203;48.144;14.118;2023-04-01T03:41:05;7.30;99.90
8332;DHT22;4203;48.144;14.118;2023-04-01T03:43:33;7.30;99.90
8332;DHT22;4203;48.144;14.118;2023-04-01T03:46:00;7.20;99.90
8332;DHT22;4203;48.144;14.118;2023-04-01T03:48:28;7.20;99.90
8332;DHT22;4203;48.144;14.118;2023-04-01T03:50:56;7.10;99.90
8332;DHT22;4203;48.144;14.118;2023-04-01T03:53:23;7.10;99.90
8332;DHT22;4203;48.144;14.118;2023-04-01T03:55:50;7.10;99.90
8332;DHT22;4203;48.144;14.118;2023-04-01T03:58:18;7.10;99.90
8332;DHT22;4203;48.144;14.118;2023-04-01T04:00:45;7.10;99.90
8332;DHT22;4203;48.144;14.118;2023-04-01T04:03:12;7.10;99.90
8332;DHT22;4203;48.144;14.118;2023-04-01T04:05:47;7.10;99.90
8332;DHT22;4203;48.144;14.118;2023-04-01T04:08:15;7.10;99.90
8332;DHT22;4203;48.144;14.118;2023-04-01T04:10:43;7.10;99.90
8332;DHT22;4203;48.144;14.118;2023-04-01T04:13:11;7.20;99.90
8332;DHT22;4203;48.144;14.118;2023-04-01T04:15:39;7.10;99.90
8332;DHT22;4203;48.144;14.118;2023-04-01T04:18:06;7.10;99.90
8332;DHT22;4203;48.144;14.118;2023-04-01T04:20:33;7.10;99.90
8332;DHT22;4203;48.144;14.118;2023-04-01T04:23:02;7.10;99.90
8332;DHT22;4203;48.144;14.118;2023-04-01T04:25:29;7.10;99.90
8332;DHT22;4203;48.144;14.118;2023-04-01T04:27:56;7.10;99.90
8332;DHT22;4203;48.144;14.118;2023-04-01T04:30:23;7.00;99.90
8332;DHT22;4203;48.144;14.118;2023-04-01T04:32:50;7.10;99.90
8332;DHT22;4203;48.144;14.118;2023-04-01T04:35:17;7.10;99.90
8332;DHT22;4203;48.144;14.118;2023-04-01T04:37:44;7.10;99.90
8332;DHT22;4203;48.144;14.118;2023-04-01T04:40:14;7.10;99.90
8332;DHT22;4203;48.144;14.118;2023-04-01T04:42:41;7.10;99.90
8332;DHT22;4203;48.144;14.118;2023-04-01T04:45:09;7.20;99.90
8332;DHT22;4203;48.144;14.118;2023-04-01T04:47:37;7.20;99.90
8332;DHT22;4203;48.144;14.118;2023-04-01T04:50:05;7.20;99.90
8332;DHT22;4203;48.144;14.118;2023-04-01T04:52:33;7.20;99.90
8332;DHT22;4203;48.144;14.118;2023-04-01T04:55:00;7.20;99.90
8332;DHT22;4203;48.144;14.118;2023-04-01T04:57:28;7.30;99.90
8332;DHT22;4203;48.144;14.118;2023-04-01T04:59:55;7.30;99.90
8332;DHT22;4203;48.144;14.118;2023-04-01T05:02:23;7.30;99.90
8332;DHT22;4203;48.144;14.118;2023-04-01T05:04:50;7.30;99.90
8332;DHT22;4203;48.144;14.118;2023-04-01T05:07:17;7.30;99.90
8332;DHT22;4203;48.144;14.118;2023-04-01T05:09:44;7.40;99.90
8332;DHT22;4203;48.144;14.118;2023-04-01T05:12:12;7.40;99.90
8332;DHT22;4203;48.144;14.118;2023-04-01T05:14:41;7.40;99.90
8332;DHT22;4203;48.144;14.118;2023-04-01T05:17:09;7.40;99.90
8332;DHT22;4203;48.144;14.118;2023-04-01T05:19:36;7.40;99.90
8332;DHT22;4203;48.144;14.118;2023-04-01T05:22:04;7.40;99.90
8332;DHT22;4203;48.144;14.118;2023-04-01T05:24:31;7.40;99.90
8332;DHT22;4203;48.144;14.118;2023-04-01T05:26:58;7.40;99.90
8332;DHT22;4203;48.144;14.118;2023-04-01T05:29:26;7.50;99.90
8332;DHT22;4203;48.144;14.118;2023-04-01T05:31:55;7.50;99.90
8332;DHT22;4203;48.144;14.118;2023-04-01T05:34:22;7.60;99.90
8332;DHT22;4203;48.144;14.118;2023-04-01T05:36:49;7.60;99.90
8332;DHT22;4203;48.144;14.118;2023-04-01T05:39:16;7.60;99.90
8332;DHT22;4203;48.144;14.118;2023-04-01T05:41:43;7.60;99.90
8332;DHT22;4203;48.144;14.118;2023-04-01T05:44:11;7.60;99.90
8332;DHT22;4203;48.144;14.118;2023-04-01T05:46:39;7.60;99.90
8332;DHT22;4203;48.144;14.118;2023-04-01T05:49:08;7.70;99.90
8332;DHT22;4203;48.144;14.118;2023-04-01T05:51:35;7.70;99.90
8332;DHT22;4203;48.144;14.118;2023-04-01T05:54:04;7.70;99.90
8332;DHT22;4203;48.144;14.118;2023-04-01T05:56:31;7.80;99.90
8332;DHT22;4203;48.144;14.118;2023-04-01T05:58:58;7.80;99.90
8332;DHT22;4203;48.144;14.118;2023-04-01T06:01:25;7.80;99.90
8332;DHT22;4203;48.144;14.118;2023-04-01T06:03:52;7.80;99.90
8332;DHT22;4203;48.144;14.118;2023-04-01T06:06:24;7.90;99.90
8332;DHT22;4203;48.144;14.118;2023-04-01T06:08:52;7.90;99.90
8332;DHT22;4203;48.144;14.118;2023-04-01T06:11:29;8.00;99.90
8332;DHT22;4203;48.144;14.118;2023-04-01T06:14:12;8.10;99.90
8332;DHT22;4203;48.144;14.118;2023-04-01T06:16:57;8.10;99.90
8332;DHT22;4203;48.144;14.118;2023-04-01T06:19:39;8.10;99.90
8332;DHT22;4203;48.144;14.118;2023-04-01T06:22:22;8.20;99.90
8332;DHT22;4203;48.144;14.118;2023-04-01T06:25:05;8.20;99.90
8332;DHT22;4203;48.144;14.118;2023-04-01T06:27:48;8.20;99.90
8332;DHT22;4203;48.144;14.118;2023-04-01T06:30:33;8.20;99.90
8332;DHT22;4203;48.144;14.118;2023-04-01T06:33:17;8.20;99.90
8332;DHT22;4203;48.144;14.118;2023-04-01T06:36:08;8.20;99.90
8332;DHT22;4203;48.144;14.118;2023-04-01T06:38:51;8.30;99.90
8332;DHT22;4203;48.144;14.118;2023-04-01T06:41:40;8.50;99.90
8332;DHT22;4203;48.144;14.118;2023-04-01T06:44:16;8.60;99.90
8332;DHT22;4203;48.144;14.118;2023-04-01T06:46:53;9.00;99.90
8332;DHT22;4203;48.144;14.118;2023-04-01T06:49:40;8.80;99.90
8332;DHT22;4203;48.144;14.118;2023-04-01T06:52:15;8.90;99.90
8332;DHT22;4203;48.144;14.118;2023-04-01T06:54:49;9.10;99.90
8332;DHT22;4203;48.144;14.118;2023-04-01T06:57:23;9.30;99.90
8332;DHT22;4203;48.144;14.118;2023-04-01T06:59:51;9.50;99.90
8332;DHT22;4203;48.144;14.118;2023-04-01T07:02:28;9.60;99.90
8332;DHT22;4203;48.144;14.118;2023-04-01T07:04:59;9.80;99.90
8332;DHT22;4203;48.144;14.118;2023-04-01T07:07:33;9.80;99.90
8332;DHT22;4203;48.144;14.118;2023-04-01T07:10:06;10.00;99.90
8332;DHT22;4203;48.144;14.118;2023-04-01T07:12:42;10.40;99.90
8332;DHT22;4203;48.144;14.118;2023-04-01T07:15:17;10.70;99.90
8332;DHT22;4203;48.144;14.118;2023-04-01T07:17:48;10.90;99.90
8332;DHT22;4203;48.144;14.118;2023-04-01T07:20:22;10.90;99.90
8332;DHT22;4203;48.144;14.118;2023-04-01T07:22:54;10.80;99.90
8332;DHT22;4203;48.144;14.118;2023-04-01T07:25:27;11.00;99.90
8332;DHT22;4203;48.144;14.118;2023-04-01T07:27:59;11.10;99.90
8332;DHT22;4203;48.144;14.118;2023-04-01T07:30:28;11.00;99.90
8332;DHT22;4203;48.144;14.118;2023-04-01T07:33:05;10.80;99.90
8332;DHT22;4203;48.144;14.118;2023-04-01T07:35:38;10.70;99.90
8332;DHT22;4203;48.144;14.118;2023-04-01T07:38:15;10.70;99.90
8332;DHT22;4203;48.144;14.118;2023-04-01T07:40:55;10.70;99.90
8332;DHT22;4203;48.144;14.118;2023-04-01T07:43:44;10.70;99.90
8332;DHT22;4203;48.144;14.118;2023-04-01T07:46:24;10.70;99.90
8332;DHT22;4203;48.144;14.118;2023-04-01T07:49:01;10.80;99.90
8332;DHT22;4203;48.144;14.118;2023-04-01T07:51:35;11.00;99.90
8332;DHT22;4203;48.144;14.118;2023-04-01T07:54:09;11.10;99.90
8332;DHT22;4203;48.144;14.118;2023-04-01T07:56:44;11.20;99.90
8332;DHT22;4203;48.144;14.118;2023-04-01T07:59:19;11.20;99.90
8332;DHT22;4203;48.144;14.118;2023-04-01T08:01:54;11.20;99.90
8332;DHT22;4203;48.144;14.118;2023-04-01T08:04:32;11.20;99.90
8332;DHT22;4203;48.144;14.118;2023-04-01T08:07:07;11.50;99.90
8332;DHT22;4203;48.144;14.118;2023-04-01T08:09:43;11.80;99.90
8332;DHT22;4203;48.144;14.118;2023-04-01T08:12:22;12.20;99.90
8332;DHT22;4203;48.144;14.118;2023-04-01T08:15:04;12.10;99.90
8332;DHT22;4203;48.144;14.118;2023-04-01T08:17:41;12.10;99.90
8332;DHT22;4203;48.144;14.118;2023-04-01T08:20:25;12.60;99.90
8332;DHT22;4203;48.144;14.118;2023-04-01T08:22:58;13.00;99.90
8332;DHT22;4203;48.144;14.118;2023-04-01T08:25:29;13.10;99.90
8332;DHT22;4203;48.144;14.118;2023-04-01T08:28:03;13.20;99.90
8332;DHT22;4203;48.144;14.118;2023-04-01T08:30:41;13.20;99.90
8332;DHT22;4203;48.144;14.118;2023-04-01T08:33:13;13.00;99.90
8332;DHT22;4203;48.144;14.118;2023-04-01T08:35:46;12.90;99.90
8332;DHT22;4203;48.144;14.118;2023-04-01T08:38:18;12.80;99.90
8332;DHT22;4203;48.144;14.118;2023-04-01T08:41:00;13.10;99.90
8332;DHT22;4203;48.144;14.118;2023-04-01T08:49:49;13.50;99.90
8332;DHT22;4203;48.144;14.118;2023-04-01T08:52:30;13.50;99.90
8332;DHT22;4203;48.144;14.118;2023-04-01T08:55:21;13.80;99.90
8332;DHT22;4203;48.144;14.118;2023-04-01T08:58:02;14.10;99.90
8332;DHT22;4203;48.144;14.118;2023-04-01T09:00:33;14.00;99.90
8332;DHT22;4203;48.144;14.118;2023-04-01T09:03:34;13.70;99.90
8332;DHT22;4203;48.144;14.118;2023-04-01T09:06:26;13.40;99.90
8332;DHT22;4203;48.144;14.118;2023-04-01T09:09:27;13.10;99.90
8332;DHT22;4203;48.144;14.118;2023-04-01T09:12:24;13.20;99.90
8332;DHT22;4203;48.144;14.118;2023-04-01T09:15:16;12.80;99.90
8332;DHT22;4203;48.144;14.118;2023-04-01T09:18:11;12.70;99.90
8332;DHT22;4203;48.144;14.118;2023-04-01T09:20:49;12.70;99.90
8332;DHT22;4203;48.144;14.118;2023-04-01T09:23:37;12.50;99.90
8332;DHT22;4203;48.144;14.118;2023-04-01T09:26:21;12.40;99.90
8332;DHT22;4203;48.144;14.118;2023-04-01T09:29:02;12.60;99.90
8332;DHT22;4203;48.144;14.118;2023-04-01T09:31:51;12.90;99.90
8332;DHT22;4203;48.144;14.118;2023-04-01T09:34:40;13.30;99.90
8332;DHT22;4203;48.144;14.118;2023-04-01T09:37:19;13.40;99.90
8332;DHT22;4203;48.144;14.118;2023-04-01T09:40:14;13.70;99.90
8332;DHT22;4203;48.144;14.118;2023-04-01T09:42:45;13.60;99.90
8332;DHT22;4203;48.144;14.118;2023-04-01T09:45:28;13.40;99.90
8332;DHT22;4203;48.144;14.118;2023-04-01T09:48:09;13.20;99.90
8332;DHT22;4203;48.144;14.118;2023-04-01T09:50:46;13.10;99.90
8332;DHT22;4203;48.144;14.118;2023-04-01T09:53:34;13.20;99.90
8332;DHT22;4203;48.144;14.118;2023-04-01T09:56:33;13.20;99.90
8332;DHT22;4203;48.144;14.118;2023-04-01T10:02:48;12.80;99.90
8332;DHT22;4203;48.144;14.118;2023-04-01T10:05:59;12.80;99.90
8332;DHT22;4203;48.144;14.118;2023-04-01T10:12:15;13.00;99.90
8332;DHT22;4203;48.144;14.118;2023-04-01T10:17:59;13.10;99.90
8332;DHT22;4203;48.144;14.118;2023-04-01T10:24:00;13.30;99.90
8332;DHT22;4203;48.144;14.118;2023-04-01T10:26:49;13.00;99.90
8332;DHT22;4203;48.144;14.118;2023-04-01T10:32:55;13.00;99.90
8332;DHT22;4203;48.144;14.118;2023-04-01T10:39:02;13.00;99.90
8332;DHT22;4203;48.144;14.118;2023-04-01T10:48:12;13.70;99.90
8332;DHT22;4203;48.144;14.118;2023-04-01T10:51:04;14.30;99.90
8332;DHT22;4203;48.144;14.118;2023-04-01T10:53:43;14.50;99.90
8332;DHT22;4203;48.144;14.118;2023-04-01T10:56:40;14.80;99.90
8332;DHT22;4203;48.144;14.118;2023-04-01T10:59:36;15.00;99.90
8332;DHT22;4203;48.144;14.118;2023-04-01T11:05:40;14.60;99.90
8332;DHT22;4203;48.144;14.118;2023-04-01T11:11:56;15.70;99.90
8332;DHT22;4203;48.144;14.118;2023-04-01T11:18:06;14.70;99.90
8332;DHT22;4203;48.144;14.118;2023-04-01T11:20:58;14.60;99.90
8332;DHT22;4203;48.144;14.118;2023-04-01T11:23:42;14.60;99.90
8332;DHT22;4203;48.144;14.118;2023-04-01T11:26:25;14.40;99.90
8332;DHT22;4203;48.144;14.118;2023-04-01T11:29:22;14.20;99.90
8332;DHT22;4203;48.144;14.118;2023-04-01T11:32:02;14.40;99.90
8332;DHT22;4203;48.144;14.118;2023-04-01T11:34:53;14.80;99.90
8332;DHT22;4203;48.144;14.118;2023-04-01T11:37:37;15.30;99.90
8332;DHT22;4203;48.144;14.118;2023-04-01T11:40:14;15.60;99.90
8332;DHT22;4203;48.144;14.118;2023-04-01T11:42:54;16.20;99.90
8332;DHT22;4203;48.144;14.118;2023-04-01T11:45:35;16.60;99.90
8332;DHT22;4203;48.144;14.118;2023-04-01T11:48:17;16.30;99.90
8332;DHT22;4203;48.144;14.118;2023-04-01T11:51:00;16.10;99.90
8332;DHT22;4203;48.144;14.118;2023-04-01T11:53:41;15.70;99.90
8332;DHT22;4203;48.144;14.118;2023-04-01T11:56:19;15.60;99.90
8332;DHT22;4203;48.144;14.118;2023-04-01T11:59:11;15.60;99.90
8332;DHT22;4203;48.144;14.118;2023-04-01T12:01:51;15.30;99.90
8332;DHT22;4203;48.144;14.118;2023-04-01T12:07:41;15.80;99.90
8332;DHT22;4203;48.144;14.118;2023-04-01T12:10:17;16.30;99.90
8332;DHT22;4203;48.144;14.118;2023-04-01T12:12:52;16.20;99.90
8332;DHT22;4203;48.144;14.118;2023-04-01T12:15:29;16.30;99.90
8332;DHT22;4203;48.144;14.118;2023-04-01T12:18:07;16.00;99.90
8332;DHT22;4203;48.144;14.118;2023-04-01T12:20:47;15.60;99.90
8332;DHT22;4203;48.144;14.118;2023-04-01T12:29:13;13.70;99.90
8332;DHT22;4203;48.144;14.118;2023-04-01T12:31:51;12.70;99.90
8332;DHT22;4203;48.144;14.118;2023-04-01T12:34:49;12.70;99.90
8332;DHT22;4203;48.144;14.118;2023-04-01T12:37:29;13.10;99.90
8332;DHT22;4203;48.144;14.118;2023-04-01T12:43:05;13.40;99.90
8332;DHT22;4203;48.144;14.118;2023-04-01T12:45:39;13.60;99.90
8332;DHT22;4203;48.144;14.118;2023-04-01T12:51:27;14.50;99.90
8332;DHT22;4203;48.144;14.118;2023-04-01T12:54:22;15.20;99.90
8332;DHT22;4203;48.144;14.118;2023-04-01T12:57:00;14.80;99.90
8332;DHT22;4203;48.144;14.118;2023-04-01T12:59:43;15.10;99.90
8332;DHT22;4203;48.144;14.118;2023-04-01T13:02:21;15.40;99.90
8332;DHT22;4203;48.144;14.118;2023-04-01T13:05:24;15.80;99.90
8332;DHT22;4203;48.144;14.118;2023-04-01T13:08:24;15.80;99.90
8332;DHT22;4203;48.144;14.118;2023-04-01T13:11:09;16.00;99.90
8332;DHT22;4203;48.144;14.118;2023-04-01T13:14:02;15.80;99.90
8332;DHT22;4203;48.144;14.118;2023-04-01T13:16:36;15.80;99.90
8332;DHT22;4203;48.144;14.118;2023-04-01T13:19:08;16.00;99.90
8332;DHT22;4203;48.144;14.118;2023-04-01T13:21:47;16.20;99.90
8332;DHT22;4203;48.144;14.118;2023-04-01T13:24:31;16.10;99.90
8332;DHT22;4203;48.144;14.118;2023-04-01T13:27:06;15.80;99.90
8332;DHT22;4203;48.144;14.118;2023-04-01T13:29:36;15.60;99.90
8332;DHT22;4203;48.144;14.118;2023-04-01T13:32:18;15.70;99.90
8332;DHT22;4203;48.144;14.118;2023-04-01T13:35:00;15.90;99.90
8332;DHT22;4203;48.144;14.118;2023-04-01T13:37:45;15.70;99.90
8332;DHT22;4203;48.144;14.118;2023-04-01T13:40:38;16.00;99.90
8332;DHT22;4203;48.144;14.118;2023-04-01T13:43:13;16.10;99.90
8332;DHT22;4203;48.144;14.118;2023-04-01T13:46:16;16.20;99.90
8332;DHT22;4203;48.144;14.118;2023-04-01T13:49:01;16.10;99.90
8332;DHT22;4203;48.144;14.118;2023-04-01T13:52:09;16.00;99.90
8332;DHT22;4203;48.144;14.118;2023-04-01T13:54:54;15.70;99.90
8332;DHT22;4203;48.144;14.118;2023-04-01T13:57:42;15.10;99.90
8332;DHT22;4203;48.144;14.118;2023-04-01T14:00:32;14.60;99.90
8332;DHT22;4203;48.144;14.118;2023-04-01T14:03:50;14.70;99.90
8332;DHT22;4203;48.144;14.118;2023-04-01T14:06:30;14.70;99.90
8332;DHT22;4203;48.144;14.118;2023-04-01T14:09:25;14.80;99.90
8332;DHT22;4203;48.144;14.118;2023-04-01T14:12:03;14.90;99.90
8332;DHT22;4203;48.144;14.118;2023-04-01T14:14:46;14.70;99.90
8332;DHT22;4203;48.144;14.118;2023-04-01T14:17:41;14.10;99.90
8332;DHT22;4203;48.144;14.118;2023-04-01T14:20:22;13.80;99.90
8332;DHT22;4203;48.144;14.118;2023-04-01T14:23:05;13.70;99.90
8332;DHT22;4203;48.144;14.118;2023-04-01T14:25:46;13.80;99.90
8332;DHT22;4203;48.144;14.118;2023-04-01T14:28:25;13.70;99.90
8332;DHT22;4203;48.144;14.118;2023-04-01T14:31:12;13.60;99.90
8332;DHT22;4203;48.144;14.118;2023-04-01T14:33:53;13.70;99.90
8332;DHT22;4203;48.144;14.118;2023-04-01T14:36:45;13.70;99.90
8332;DHT22;4203;48.144;14.118;2023-04-01T14:39:29;13.20;99.90
8332;DHT22;4203;48.144;14.118;2023-04-01T14:42:15;12.60;99.90
8332;DHT22;4203;48.144;14.118;2023-04-01T14:44:57;12.00;99.90
8332;DHT22;4203;48.144;14.118;2023-04-01T14:47:42;11.00;99.90
8332;DHT22;4203;48.144;14.118;2023-04-01T14:50:14;10.40;99.90
8332;DHT22;4203;48.144;14.118;2023-04-01T14:52:46;10.10;99.90
8332;DHT22;4203;48.144;14.118;2023-04-01T14:55:25;10.20;99.90
8332;DHT22;4203;48.144;14.118;2023-04-01T14:58:07;10.40;99.90
8332;DHT22;4203;48.144;14.118;2023-04-01T15:01:07;10.60;99.90
8332;DHT22;4203;48.144;14.118;2023-04-01T15:03:48;10.80;99.90
8332;DHT22;4203;48.144;14.118;2023-04-01T15:06:41;10.90;99.90
8332;DHT22;4203;48.144;14.118;2023-04-01T15:09:20;11.00;99.90
8332;DHT22;4203;48.144;14.118;2023-04-01T15:12:01;10.90;99.90
8332;DHT22;4203;48.144;14.118;2023-04-01T15:14:41;10.90;99.90
8332;DHT22;4203;48.144;14.118;2023-04-01T15:17:24;10.80;99.90
8332;DHT22;4203;48.144;14.118;2023-04-01T15:20:13;10.70;99.90
8332;DHT22;4203;48.144;14.118;2023-04-01T15:22:56;10.60;99.90
8332;DHT22;4203;48.144;14.118;2023-04-01T15:25:43;10.80;99.90
8332;DHT22;4203;48.144;14.118;2023-04-01T15:28:20;11.00;99.90
8332;DHT22;4203;48.144;14.118;2023-04-01T15:30:54;11.10;99.90
8332;DHT22;4203;48.144;14.118;2023-04-01T15:36:29;11.20;99.90
8332;DHT22;4203;48.144;14.118;2023-04-01T15:39:03;11.10;99.90
8332;DHT22;4203;48.144;14.118;2023-04-01T15:41:42;11.20;99.90
8332;DHT22;4203;48.144;14.118;2023-04-01T15:44:42;11.10;99.90
8332;DHT22;4203;48.144;14.118;2023-04-01T15:47:32;11.10;99.90
8332;DHT22;4203;48.144;14.118;2023-04-01T15:53:11;11.00;99.90
8332;DHT22;4203;48.144;14.118;2023-04-01T15:55:48;11.10;99.90
8332;DHT22;4203;48.144;14.118;2023-04-01T15:58:39;11.00;99.90
8332;DHT22;4203;48.144;14.118;2023-04-01T16:01:22;11.10;99.90
8332;DHT22;4203;48.144;14.118;2023-04-01T16:03:55;10.90;99.90
8332;DHT22;4203;48.144;14.118;2023-04-01T16:06:50;10.80;99.90
8332;DHT22;4203;48.144;14.118;2023-04-01T16:12:19;10.60;99.90
8332;DHT22;4203;48.144;14.118;2023-04-01T16:15:01;10.60;99.90
8332;DHT22;4203;48.144;14.118;2023-04-01T16:17:43;10.60;99.90
8332;DHT22;4203;48.144;14.118;2023-04-01T16:20:19;10.50;99.90
8332;DHT22;4203;48.144;14.118;2023-04-01T16:22:54;10.20;99.90
8332;DHT22;4203;48.144;14.118;2023-04-01T16:25:32;10.20;99.90
8332;DHT22;4203;48.144;14.118;2023-04-01T16:28:14;10.20;99.90
8332;DHT22;4203;48.144;14.118;2023-04-01T16:30:47;10.20;99.90
8332;DHT22;4203;48.144;14.118;2023-04-01T16:33:21;10.10;99.90
8332;DHT22;4203;48.144;14.118;2023-04-01T16:35:54;10.10;99.90
8332;DHT22;4203;48.144;14.118;2023-04-01T16:38:26;10.20;99.90
8332;DHT22;4203;48.144;14.118;2023-04-01T16:41:11;10.20;99.90
8332;DHT22;4203;48.144;14.118;2023-04-01T16:43:43;10.10;99.90
8332;DHT22;4203;48.144;14.118;2023-04-01T16:46:28;10.10;99.90
8332;DHT22;4203;48.144;14.118;2023-04-01T16:49:17;10.00;99.90
8332;DHT22;4203;48.144;14.118;2023-04-01T16:51:48;9.90;99.90
8332;DHT22;4203;48.144;14.118;2023-04-01T16:54:28;9.90;99.90
8332;DHT22;4203;48.144;14.118;2023-04-01T16:57:12;9.90;99.90
8332;DHT22;4203;48.144;14.118;2023-04-01T16:59:47;9.80;99.90
8332;DHT22;4203;48.144;14.118;2023-04-01T17:02:17;9.70;99.90
8332;DHT22;4203;48.144;14.118;2023-04-01T17:04:48;9.80;99.90
8332;DHT22;4203;48.144;14.118;2023-04-01T17:07:23;9.80;99.90
8332;DHT22;4203;48.144;14.118;2023-04-01T17:10:01;9.60;99.90
8332;DHT22;4203;48.144;14.118;2023-04-01T17:12:37;9.60;99.90
8332;DHT22;4203;48.144;14.118;2023-04-01T17:15:16;9.50;99.90
8332;DHT22;4203;48.144;14.118;2023-04-01T17:17:51;9.50;99.90
8332;DHT22;4203;48.144;14.118;2023-04-01T17:20:33;9.30;99.90
8332;DHT22;4203;48.144;14.118;2023-04-01T17:23:18;9.20;99.90
8332;DHT22;4203;48.144;14.118;2023-04-01T17:25:54;9.10;99.90
8332;DHT22;4203;48.144;14.118;2023-04-01T17:28:35;9.00;99.90
8332;DHT22;4203;48.144;14.118;2023-04-01T17:31:10;9.00;99.90
8332;DHT22;4203;48.144;14.118;2023-04-01T17:34:04;9.00;99.90
8332;DHT22;4203;48.144;14.118;2023-04-01T17:36:40;8.90;99.90
8332;DHT22;4203;48.144;14.118;2023-04-01T17:39:28;8.80;99.90
8332;DHT22;4203;48.144;14.118;2023-04-01T17:42:04;8.80;99.90
8332;DHT22;4203;48.144;14.118;2023-04-01T17:44:49;8.60;99.90
8332;DHT22;4203;48.144;14.118;2023-04-01T17:47:31;8.50;99.90
8332;DHT22;4203;48.144;14.118;2023-04-01T17:50:13;8.50;99.90
8332;DHT22;4203;48.144;14.118;2023-04-01T17:52:47;8.50;99.90
8332;DHT22;4203;48.144;14.118;2023-04-01T17:58:18;8.60;99.90
8332;DHT22;4203;48.144;14.118;2023-04-01T18:07:11;8.60;99.90
8332;DHT22;4203;48.144;14.118;2023-04-01T18:09:52;8.50;99.90
8332;DHT22;4203;48.144;14.118;2023-04-01T18:12:31;8.50;99.90
8332;DHT22;4203;48.144;14.118;2023-04-01T18:15:15;8.50;99.90
8332;DHT22;4203;48.144;14.118;2023-04-01T18:18:02;8.50;99.90